sensor_id;sensor_type;location;lat;lon;timestamp;temperature;humidity
51021;DHT22;38907;45.562;8.856;2022-10-16T00:01:18;17.40;99.90
51021;DHT22;38907;45.562;8.856;2022-10-16T00:06:23;17.30;99.90
51021;DHT22;38907;45.562;8.856;2022-10-16T00:11:27;17.40;99.90
51021;DHT22;38907;45.562;8.856;2022-10-16T00:16:29;17.40;99.90
51021;DHT22;38907;45.562;8.856;2022-10-16T00:21:33;17.30;99.90
51021;DHT22;38907;45.562;8.856;2022-10-16T00:26:37;17.30;99.90
51021;DHT22;38907;45.562;8.856;2022-10-16T00:31:39;17.30;99.90
51021;DHT22;38907;45.562;8.856;2022-10-16T00:36:42;17.40;99.90
51021;DHT22;38907;45.562;8.856;2022-10-16T00:41:44;17.50;99.90
51021;DHT22;38907;45.562;8.856;2022-10-16T00:46:46;17.50;99.90
51021;DHT22;38907;45.562;8.856;2022-10-16T00:51:51;17.50;99.90
51021;DHT22;38907;45.562;8.856;2022-10-16T00:56:54;17.50;99.90
51021;DHT22;38907;45.562;8.856;2022-10-16T01:01:58;17.50;99.90
51021;DHT22;38907;45.562;8.856;2022-10-16T01:07:08;17.50;99.90
51021;DHT22;38907;45.562;8.856;2022-10-16T01:12:15;17.50;99.90
51021;DHT22;38907;45.562;8.856;2022-10-16T01:17:26;17.40;99.90
51021;DHT22;38907;45.562;8.856;2022-10-16T01:22:39;17.40;99.90
51021;DHT22;38907;45.562;8.856;2022-10-16T01:27:45;17.40;99.90
51021;DHT22;38907;45.562;8.856;2022-10-16T01:32:50;17.30;99.90
51021;DHT22;38907;45.562;8.856;2022-10-16T01:37:59;17.30;99.90
51021;DHT22;38907;45.562;8.856;2022-10-16T01:43:07;17.30;99.90
51021;DHT22;38907;45.562;8.856;2022-10-16T01:48:11;17.30;99.90
51021;DHT22;38907;45.562;8.856;2022-10-16T01:53:14;17.30;99.90
51021;DHT22;38907;45.562;8.856;2022-10-16T01:58:18;17.30;99.90
51021;DHT22;38907;45.562;8.856;2022-10-16T02:03:20;17.20;99.90
51021;DHT22;38907;45.562;8.856;2022-10-16T02:08:24;17.20;99.90
51021;DHT22;38907;45.562;8.856;2022-10-16T02:13:33;17.20;99.90
51021;DHT22;38907;45.562;8.856;2022-10-16T02:18:37;17.30;99.90
51021;DHT22;38907;45.562;8.856;2022-10-16T02:23:43;17.20;99.90
51021;DHT22;38907;45.562;8.856;2022-10-16T02:28:53;17.20;99.90
51021;DHT22;38907;45.562;8.856;2022-10-16T02:33:58;17.10;99.90
51021;DHT22;38907;45.562;8.856;2022-10-16T02:39:01;17.10;99.90
51021;DHT22;38907;45.562;8.856;2022-10-16T02:44:05;17.10;99.90
51021;DHT22;38907;45.562;8.856;2022-10-16T02:49:07;17.20;99.90
51021;DHT22;38907;45.562;8.856;2022-10-16T02:54:09;17.20;99.90
51021;DHT22;38907;45.562;8.856;2022-10-16T02:59:12;17.10;99.90
51021;DHT22;38907;45.562;8.856;2022-10-16T03:04:14;17.00;99.90
51021;DHT22;38907;45.562;8.856;2022-10-16T03:09:16;17.00;99.90
51021;DHT22;38907;45.562;8.856;2022-10-16T03:14:19;17.00;99.90
51021;DHT22;38907;45.562;8.856;2022-10-16T03:19:21;17.00;99.90
51021;DHT22;38907;45.562;8.856;2022-10-16T03:24:23;17.10;99.90
51021;DHT22;38907;45.562;8.856;2022-10-16T03:29:26;17.00;99.90
51021;DHT22;38907;45.562;8.856;2022-10-16T03:34:29;17.10;99.90
51021;DHT22;38907;45.562;8.856;2022-10-16T03:39:31;17.10;99.90
51021;DHT22;38907;45.562;8.856;2022-10-16T03:44:35;17.10;99.90
51021;DHT22;38907;45.562;8.856;2022-10-16T03:49:37;17.10;99.90
51021;DHT22;38907;45.562;8.856;2022-10-16T03:54:38;17.10;99.90
51021;DHT22;38907;45.562;8.856;2022-10-16T03:59:42;17.10;99.90
51021;DHT22;38907;45.562;8.856;2022-10-16T04:04:43;17.10;99.90
51021;DHT22;38907;45.562;8.856;2022-10-16T04:09:45;17.10;99.90
51021;DHT22;38907;45.562;8.856;2022-10-16T04:14:49;17.10;99.90
51021;DHT22;38907;45.562;8.856;2022-10-16T04:19:50;17.10;99.90
51021;DHT22;38907;45.562;8.856;2022-10-16T04:24:52;17.10;99.90
51021;DHT22;38907;45.562;8.856;2022-10-16T04:29:55;17.10;99.90
51021;DHT22;38907;45.562;8.856;2022-10-16T04:34:57;17.20;99.90
51021;DHT22;38907;45.562;8.856;2022-10-16T04:39:59;17.10;99.90
51021;DHT22;38907;45.562;8.856;2022-10-16T04:45:03;17.10;99.90
51021;DHT22;38907;45.562;8.856;2022-10-16T04:50:05;17.10;99.90
51021;DHT22;38907;45.562;8.856;2022-10-16T04:55:08;17.10;99.90
51021;DHT22;38907;45.562;8.856;2022-10-16T05:00:12;17.10;99.90
51021;DHT22;38907;45.562;8.856;2022-10-16T05:05:14;17.10;99.90
51021;DHT22;38907;45.562;8.856;2022-10-16T05:10:16;17.10;99.90
51021;DHT22;38907;45.562;8.856;2022-10-16T05:15:19;17.10;99.90
51021;DHT22;38907;45.562;8.856;2022-10-16T05:20:22;17.00;99.90
51021;DHT22;38907;45.562;8.856;2022-10-16T05:25:24;17.10;99.90
51021;DHT22;38907;45.562;8.856;2022-10-16T05:30:27;17.10;99.90
51021;DHT22;38907;45.562;8.856;2022-10-16T05:35:29;17.10;99.90
51021;DHT22;38907;45.562;8.856;2022-10-16T05:40:31;17.00;99.90
51021;DHT22;38907;45.562;8.856;2022-10-16T05:45:34;17.10;99.90
51021;DHT22;38907;45.562;8.856;2022-10-16T05:50:36;17.00;99.90
51021;DHT22;38907;45.562;8.856;2022-10-16T05:55:38;17.00;99.90
51021;DHT22;38907;45.562;8.856;2022-10-16T06:00:41;16.90;99.90
51021;DHT22;38907;45.562;8.856;2022-10-16T06:05:42;17.00;99.90
51021;DHT22;38907;45.562;8.856;2022-10-16T06:10:45;17.00;99.90
51021;DHT22;38907;45.562;8.856;2022-10-16T06:15:48;17.10;99.90
51021;DHT22;38907;45.562;8.856;2022-10-16T06:20:50;17.00;99.90
51021;DHT22;38907;45.562;8.856;2022-10-16T06:25:52;17.00;99.90
51021;DHT22;38907;45.562;8.856;2022-10-16T06:31:00;17.00;99.90
51021;DHT22;38907;45.562;8.856;2022-10-16T06:36:03;17.10;99.90
51021;DHT22;38907;45.562;8.856;2022-10-16T06:41:06;17.20;99.90
51021;DHT22;38907;45.562;8.856;2022-10-16T06:46:10;17.10;99.90
51021;DHT22;38907;45.562;8.856;2022-10-16T06:51:14;17.20;99.90
51021;DHT22;38907;45.562;8.856;2022-10-16T06:56:18;17.20;99.90
51021;DHT22;38907;45.562;8.856;2022-10-16T07:01:23;17.30;99.90
51021;DHT22;38907;45.562;8.856;2022-10-16T07:06:26;17.30;99.90
51021;DHT22;38907;45.562;8.856;2022-10-16T07:11:28;17.30;99.90
51021;DHT22;38907;45.562;8.856;2022-10-16T07:16:32;17.40;99.90
51021;DHT22;38907;45.562;8.856;2022-10-16T07:21:34;17.50;99.90
51021;DHT22;38907;45.562;8.856;2022-10-16T07:26:37;17.40;99.90
51021;DHT22;38907;45.562;8.856;2022-10-16T07:31:42;17.50;99.90
51021;DHT22;38907;45.562;8.856;2022-10-16T07:36:44;17.60;99.90
51021;DHT22;38907;45.562;8.856;2022-10-16T07:41:46;17.60;99.90
51021;DHT22;38907;45.562;8.856;2022-10-16T07:46:49;17.60;99.90
51021;DHT22;38907;45.562;8.856;2022-10-16T07:51:51;17.70;99.90
51021;DHT22;38907;45.562;8.856;2022-10-16T07:56:53;17.80;99.90
51021;DHT22;38907;45.562;8.856;2022-10-16T08:01:57;17.80;99.90
51021;DHT22;38907;45.562;8.856;2022-10-16T08:06:58;17.90;99.90
51021;DHT22;38907;45.562;8.856;2022-10-16T08:12:00;18.00;99.90
51021;DHT22;38907;45.562;8.856;2022-10-16T08:17:04;18.00;99.90
51021;DHT22;38907;45.562;8.856;2022-10-16T08:22:06;18.10;99.90
51021;DHT22;38907;45.562;8.856;2022-10-16T08:27:08;18.10;99.90
51021;DHT22;38907;45.562;8.856;2022-10-16T08:32:12;18.10;99.90
51021;DHT22;38907;45.562;8.856;2022-10-16T08:37:14;18.10;99.90
51021;DHT22;38907;45.562;8.856;2022-10-16T08:42:25;18.10;99.90
51021;DHT22;38907;45.562;8.856;2022-10-16T08:47:43;18.10;99.90
51021;DHT22;38907;45.562;8.856;2022-10-16T08:52:46;18.20;99.90
51021;DHT22;38907;45.562;8.856;2022-10-16T08:57:49;18.20;99.90
51021;DHT22;38907;45.562;8.856;2022-10-16T09:02:59;18.20;99.90
51021;DHT22;38907;45.562;8.856;2022-10-16T09:08:09;18.20;99.90
51021;DHT22;38907;45.562;8.856;2022-10-16T09:13:20;18.20;99.90
51021;DHT22;38907;45.562;8.856;2022-10-16T09:18:31;18.30;99.90
51021;DHT22;38907;45.562;8.856;2022-10-16T09:23:37;18.40;99.90
51021;DHT22;38907;45.562;8.856;2022-10-16T09:28:38;18.40;99.90
51021;DHT22;38907;45.562;8.856;2022-10-16T09:33:44;18.50;99.90
51021;DHT22;38907;45.562;8.856;2022-10-16T09:38:46;18.60;99.90
51021;DHT22;38907;45.562;8.856;2022-10-16T09:43:54;18.70;99.90
51021;DHT22;38907;45.562;8.856;2022-10-16T09:49:00;18.70;99.90
51021;DHT22;38907;45.562;8.856;2022-10-16T09:54:14;18.60;99.90
51021;DHT22;38907;45.562;8.856;2022-10-16T09:59:17;18.70;99.90
51021;DHT22;38907;45.562;8.856;2022-10-16T10:04:23;18.60;99.90
51021;DHT22;38907;45.562;8.856;2022-10-16T10:09:27;18.70;99.90
51021;DHT22;38907;45.562;8.856;2022-10-16T10:14:32;18.80;99.90
51021;DHT22;38907;45.562;8.856;2022-10-16T10:19:43;18.80;99.90
51021;DHT22;38907;45.562;8.856;2022-10-16T10:24:55;18.80;99.90
51021;DHT22;38907;45.562;8.856;2022-10-16T10:30:01;18.90;99.90
51021;DHT22;38907;45.562;8.856;2022-10-16T10:35:14;18.90;99.90
51021;DHT22;38907;45.562;8.856;2022-10-16T10:40:22;19.00;99.90
51021;DHT22;38907;45.562;8.856;2022-10-16T10:45:27;19.00;99.90
51021;DHT22;38907;45.562;8.856;2022-10-16T10:50:36;19.00;99.90
51021;DHT22;38907;45.562;8.856;2022-10-16T10:55:45;19.10;99.90
51021;DHT22;38907;45.562;8.856;2022-10-16T11:00:54;19.20;99.90
51021;DHT22;38907;45.562;8.856;2022-10-16T11:06:04;19.40;99.90
51021;DHT22;38907;45.562;8.856;2022-10-16T11:11:11;19.30;99.90
51021;DHT22;38907;45.562;8.856;2022-10-16T11:16:21;19.40;99.90
51021;DHT22;38907;45.562;8.856;2022-10-16T11:21:28;19.60;99.90
51021;DHT22;38907;45.562;8.856;2022-10-16T11:26:34;19.70;99.90
51021;DHT22;38907;45.562;8.856;2022-10-16T11:31:40;19.70;99.90
51021;DHT22;38907;45.562;8.856;2022-10-16T11:36:46;19.80;99.90
51021;DHT22;38907;45.562;8.856;2022-10-16T11:41:52;20.00;99.90
51021;DHT22;38907;45.562;8.856;2022-10-16T11:47:04;20.10;99.90
51021;DHT22;38907;45.562;8.856;2022-10-16T11:52:17;20.20;99.90
51021;DHT22;38907;45.562;8.856;2022-10-16T11:57:24;20.30;99.90
51021;DHT22;38907;45.562;8.856;2022-10-16T12:02:35;20.40;99.90
51021;DHT22;38907;45.562;8.856;2022-10-16T12:07:48;20.50;99.90
51021;DHT22;38907;45.562;8.856;2022-10-16T12:12:52;20.50;99.90
51021;DHT22;38907;45.562;8.856;2022-10-16T12:17:54;20.50;99.90
51021;DHT22;38907;45.562;8.856;2022-10-16T12:22:59;20.60;99.90
51021;DHT22;38907;45.562;8.856;2022-10-16T12:28:04;20.70;99.90
51021;DHT22;38907;45.562;8.856;2022-10-16T12:33:20;20.80;99.90
51021;DHT22;38907;45.562;8.856;2022-10-16T12:38:28;20.80;99.90
51021;DHT22;38907;45.562;8.856;2022-10-16T12:43:39;20.80;99.90
51021;DHT22;38907;45.562;8.856;2022-10-16T12:48:44;21.00;99.90
51021;DHT22;38907;45.562;8.856;2022-10-16T12:53:58;21.00;99.90
51021;DHT22;38907;45.562;8.856;2022-10-16T12:59:03;21.10;99.90
51021;DHT22;38907;45.562;8.856;2022-10-16T13:04:35;21.10;99.90
51021;DHT22;38907;45.562;8.856;2022-10-16T13:09:48;21.10;99.90
51021;DHT22;38907;45.562;8.856;2022-10-16T13:15:19;21.30;99.90
51021;DHT22;38907;45.562;8.856;2022-10-16T13:20:29;21.30;99.90
51021;DHT22;38907;45.562;8.856;2022-10-16T13:25:42;21.40;99.90
51021;DHT22;38907;45.562;8.856;2022-10-16T13:30:52;21.40;99.90
51021;DHT22;38907;45.562;8.856;2022-10-16T13:35:55;21.30;99.90
51021;DHT22;38907;45.562;8.856;2022-10-16T13:41:00;21.30;99.90
51021;DHT22;38907;45.562;8.856;2022-10-16T13:46:04;21.40;99.90
51021;DHT22;38907;45.562;8.856;2022-10-16T13:51:12;21.50;99.90
51021;DHT22;38907;45.562;8.856;2022-10-16T13:56:19;21.50;99.90
51021;DHT22;38907;45.562;8.856;2022-10-16T14:01:24;21.40;99.90
51021;DHT22;38907;45.562;8.856;2022-10-16T14:06:28;21.50;99.90
51021;DHT22;38907;45.562;8.856;2022-10-16T14:11:31;21.50;99.90
51021;DHT22;38907;45.562;8.856;2022-10-16T14:16:34;21.60;99.90
51021;DHT22;38907;45.562;8.856;2022-10-16T14:21:36;21.50;99.90
51021;DHT22;38907;45.562;8.856;2022-10-16T14:26:43;21.50;99.90
51021;DHT22;38907;45.562;8.856;2022-10-16T14:31:56;21.40;99.90
51021;DHT22;38907;45.562;8.856;2022-10-16T14:37:01;21.50;99.90
51021;DHT22;38907;45.562;8.856;2022-10-16T14:42:16;21.50;99.90
51021;DHT22;38907;45.562;8.856;2022-10-16T14:47:23;21.40;99.90
51021;DHT22;38907;45.562;8.856;2022-10-16T14:52:27;21.40;99.90
51021;DHT22;38907;45.562;8.856;2022-10-16T14:57:31;21.40;99.90
51021;DHT22;38907;45.562;8.856;2022-10-16T15:02:36;21.30;99.90
51021;DHT22;38907;45.562;8.856;2022-10-16T15:07:39;21.30;99.90
51021;DHT22;38907;45.562;8.856;2022-10-16T15:12:43;21.30;99.90
51021;DHT22;38907;45.562;8.856;2022-10-16T15:17:46;21.20;99.90
51021;DHT22;38907;45.562;8.856;2022-10-16T15:22:49;21.20;99.90
51021;DHT22;38907;45.562;8.856;2022-10-16T15:27:52;21.10;99.90
51021;DHT22;38907;45.562;8.856;2022-10-16T15:32:56;21.10;99.90
51021;DHT22;38907;45.562;8.856;2022-10-16T15:38:00;21.10;99.90
51021;DHT22;38907;45.562;8.856;2022-10-16T15:43:04;21.00;99.90
51021;DHT22;38907;45.562;8.856;2022-10-16T15:48:10;21.00;99.90
51021;DHT22;38907;45.562;8.856;2022-10-16T15:53:14;20.90;99.90
51021;DHT22;38907;45.562;8.856;2022-10-16T15:58:18;20.80;99.90
51021;DHT22;38907;45.562;8.856;2022-10-16T16:03:21;20.80;99.90
51021;DHT22;38907;45.562;8.856;2022-10-16T16:08:23;20.60;99.90
51021;DHT22;38907;45.562;8.856;2022-10-16T16:13:26;20.50;99.90
51021;DHT22;38907;45.562;8.856;2022-10-16T16:18:29;20.40;99.90
51021;DHT22;38907;45.562;8.856;2022-10-16T16:23:31;20.30;99.90
51021;DHT22;38907;45.562;8.856;2022-10-16T16:28:34;20.30;99.90
51021;DHT22;38907;45.562;8.856;2022-10-16T16:33:36;20.20;99.90
51021;DHT22;38907;45.562;8.856;2022-10-16T16:38:39;20.10;99.90
51021;DHT22;38907;45.562;8.856;2022-10-16T16:43:42;20.00;99.90
51021;DHT22;38907;45.562;8.856;2022-10-16T16:48:44;19.80;99.90
51021;DHT22;38907;45.562;8.856;2022-10-16T16:53:48;19.70;99.90
51021;DHT22;38907;45.562;8.856;2022-10-16T16:58:54;19.70;99.90
51021;DHT22;38907;45.562;8.856;2022-10-16T17:03:57;19.60;99.90
51021;DHT22;38907;45.562;8.856;2022-10-16T17:09:01;19.50;99.90
51021;DHT22;38907;45.562;8.856;2022-10-16T17:14:05;19.50;99.90
51021;DHT22;38907;45.562;8.856;2022-10-16T17:19:10;19.50;99.90
51021;DHT22;38907;45.562;8.856;2022-10-16T17:24:13;19.40;99.90
51021;DHT22;38907;45.562;8.856;2022-10-16T17:29:16;19.30;99.90
51021;DHT22;38907;45.562;8.856;2022-10-16T17:34:18;19.20;99.90
51021;DHT22;38907;45.562;8.856;2022-10-16T17:39:20;19.10;99.90
51021;DHT22;38907;45.562;8.856;2022-10-16T17:44:24;19.10;99.90
51021;DHT22;38907;45.562;8.856;2022-10-16T17:49:26;19.10;99.90
51021;DHT22;38907;45.562;8.856;2022-10-16T17:54:28;19.10;99.90
51021;DHT22;38907;45.562;8.856;2022-10-16T17:59:31;18.90;99.90
51021;DHT22;38907;45.562;8.856;2022-10-16T18:04:33;18.80;99.90
51021;DHT22;38907;45.562;8.856;2022-10-16T18:09:35;18.70;99.90
51021;DHT22;38907;45.562;8.856;2022-10-16T18:14:38;18.60;99.90
51021;DHT22;38907;45.562;8.856;2022-10-16T18:19:40;18.60;99.90
51021;DHT22;38907;45.562;8.856;2022-10-16T18:24:42;18.40;99.90
51021;DHT22;38907;45.562;8.856;2022-10-16T18:29:45;18.40;99.90
51021;DHT22;38907;45.562;8.856;2022-10-16T18:34:47;18.40;99.90
51021;DHT22;38907;45.562;8.856;2022-10-16T18:39:49;18.30;99.90
51021;DHT22;38907;45.562;8.856;2022-10-16T18:44:52;18.30;99.90
51021;DHT22;38907;45.562;8.856;2022-10-16T18:49:54;18.20;99.90
51021;DHT22;38907;45.562;8.856;2022-10-16T18:54:56;18.10;99.90
51021;DHT22;38907;45.562;8.856;2022-10-16T19:00:00;17.90;99.90
51021;DHT22;38907;45.562;8.856;2022-10-16T19:05:02;17.80;99.90
51021;DHT22;38907;45.562;8.856;2022-10-16T19:10:06;17.80;99.90
51021;DHT22;38907;45.562;8.856;2022-10-16T19:15:11;17.80;99.90
51021;DHT22;38907;45.562;8.856;2022-10-16T19:20:13;17.80;99.90
51021;DHT22;38907;45.562;8.856;2022-10-16T19:25:16;17.90;99.90
51021;DHT22;38907;45.562;8.856;2022-10-16T19:30:19;18.00;99.90
51021;DHT22;38907;45.562;8.856;2022-10-16T19:35:22;18.00;99.90
51021;DHT22;38907;45.562;8.856;2022-10-16T19:40:26;17.80;99.90
51021;DHT22;38907;45.562;8.856;2022-10-16T19:45:29;17.80;99.90
51021;DHT22;38907;45.562;8.856;2022-10-16T19:50:32;17.80;99.90
51021;DHT22;38907;45.562;8.856;2022-10-16T19:55:34;17.70;99.90
51021;DHT22;38907;45.562;8.856;2022-10-16T20:00:40;17.80;99.90
51021;DHT22;38907;45.562;8.856;2022-10-16T20:05:49;17.80;99.90
51021;DHT22;38907;45.562;8.856;2022-10-16T20:10:53;17.90;99.90
51021;DHT22;38907;45.562;8.856;2022-10-16T20:15:56;17.90;99.90
51021;DHT22;38907;45.562;8.856;2022-10-16T20:20:58;17.90;99.90
51021;DHT22;38907;45.562;8.856;2022-10-16T20:26:00;17.80;99.90
51021;DHT22;38907;45.562;8.856;2022-10-16T20:31:07;17.80;99.90
51021;DHT22;38907;45.562;8.856;2022-10-16T20:36:12;17.80;99.90
51021;DHT22;38907;45.562;8.856;2022-10-16T20:41:15;17.80;99.90
51021;DHT22;38907;45.562;8.856;2022-10-16T20:46:21;17.80;99.90
51021;DHT22;38907;45.562;8.856;2022-10-16T20:51:25;17.80;99.90
51021;DHT22;38907;45.562;8.856;2022-10-16T20:56:30;17.80;99.90
51021;DHT22;38907;45.562;8.856;2022-10-16T21:01:34;17.70;99.90
51021;DHT22;38907;45.562;8.856;2022-10-16T21:06:37;17.60;99.90
51021;DHT22;38907;45.562;8.856;2022-10-16T21:11:39;17.70;99.90
51021;DHT22;38907;45.562;8.856;2022-10-16T21:16:43;17.50;99.90
51021;DHT22;38907;45.562;8.856;2022-10-16T21:21:44;17.50;99.90
51021;DHT22;38907;45.562;8.856;2022-10-16T21:26:46;17.30;99.90
51021;DHT22;38907;45.562;8.856;2022-10-16T21:31:50;17.30;99.90
51021;DHT22;38907;45.562;8.856;2022-10-16T21:36:51;17.20;99.90
51021;DHT22;38907;45.562;8.856;2022-10-16T21:41:53;17.20;99.90
51021;DHT22;38907;45.562;8.856;2022-10-16T21:46:56;17.30;99.90
51021;DHT22;38907;45.562;8.856;2022-10-16T21:51:58;17.10;99.90
51021;DHT22;38907;45.562;8.856;2022-10-16T21:57:00;17.00;99.90
51021;DHT22;38907;45.562;8.856;2022-10-16T22:02:04;17.00;99.90
51021;DHT22;38907;45.562;8.856;2022-10-16T22:07:05;16.90;99.90
51021;DHT22;38907;45.562;8.856;2022-10-16T22:12:07;16.80;99.90
51021;DHT22;38907;45.562;8.856;2022-10-16T22:17:11;16.80;99.90
51021;DHT22;38907;45.562;8.856;2022-10-16T22:22:13;16.80;99.90
51021;DHT22;38907;45.562;8.856;2022-10-16T22:27:14;16.80;99.90
51021;DHT22;38907;45.562;8.856;2022-10-16T22:32:18;16.70;99.90
51021;DHT22;38907;45.562;8.856;2022-10-16T22:37:20;16.60;99.90
51021;DHT22;38907;45.562;8.856;2022-10-16T22:42:21;16.60;99.90
51021;DHT22;38907;45.562;8.856;2022-10-16T22:47:25;16.60;99.90
51021;DHT22;38907;45.562;8.856;2022-10-16T22:52:27;16.50;99.90
51021;DHT22;38907;45.562;8.856;2022-10-16T22:57:29;16.60;99.90
51021;DHT22;38907;45.562;8.856;2022-10-16T23:02:33;16.70;99.90
51021;DHT22;38907;45.562;8.856;2022-10-16T23:07:36;16.60;99.90
51021;DHT22;38907;45.562;8.856;2022-10-16T23:12:38;16.60;99.90
51021;DHT22;38907;45.562;8.856;2022-10-16T23:17:41;16.60;99.90
51021;DHT22;38907;45.562;8.856;2022-10-16T23:22:43;16.50;99.90
51021;DHT22;38907;45.562;8.856;2022-10-16T23:27:45;16.50;99.90
51021;DHT22;38907;45.562;8.856;2022-10-16T23:32:48;16.50;99.90
51021;DHT22;38907;45.562;8.856;2022-10-16T23:37:50;16.40;99.90
51021;DHT22;38907;45.562;8.856;2022-10-16T23:42:52;16.40;99.90
51021;DHT22;38907;45.562;8.856;2022-10-16T23:47:55;16.40;99.90
51021;DHT22;38907;45.562;8.856;2022-10-16T23:52:57;16.40;99.90
51021;DHT22;38907;45.562;8.856;2022-10-16T23:57:58;16.40;99.90
